Time;durP1;ratioP1;P1;durP2;ratioP2;P2;SDS_P1;SDS_P2;PMS_P1;PMS_P2;Temp;Humidity;BMP_temperature;BMP_pressure;BME280_temperature;BME280_humidity;BME280_pressure;Samples;Min_cycle;Max_cycle;Signal;HPM_P1;HPM_P2
2021/04/27 00:00:17;;;;;;;12.27;5.00;;;;;;;4.85;71.72;101008.59;5047172;28;20048;-75
2021/04/27 00:02:43;;;;;;;6.82;4.03;;;;;;;4.81;72.13;101001.00;5030444;28;20037;-80
2021/04/27 00:05:12;;;;;;;6.75;4.32;;;;;;;4.66;72.57;100997.72;5047492;28;20041;-80
2021/04/27 00:07:38;;;;;;;;;;;;;;;4.70;72.51;100996.53;5030529;28;20037;-78
2021/04/27 00:10:06;;;;;;;7.03;4.35;;;;;;;4.56;72.53;101002.91;5047883;28;19923;-75
2021/04/27 00:12:31;;;;;;;6.40;4.13;;;;;;;4.56;73.09;100991.44;5026533;28;20128;-78
2021/04/27 00:14:57;;;;;;;8.02;4.93;;;;;;;4.52;73.08;100994.34;5048375;28;20132;-79
2021/04/27 00:17:22;;;;;;;8.40;4.63;;;;;;;4.52;73.15;100991.69;5028426;28;20139;-82
2021/04/27 00:19:48;;;;;;;6.88;4.32;;;;;;;4.47;73.08;100982.38;5045738;28;20036;-80
2021/04/27 00:22:13;;;;;;;7.80;4.40;;;;;;;4.44;73.53;100982.63;5023733;28;20121;-80
2021/04/27 00:24:39;;;;;;;6.47;4.45;;;;;;;4.41;73.43;100978.41;5020510;28;20064;-81
2021/04/27 00:27:04;;;;;;;6.95;4.40;;;;;;;4.44;73.43;100972.00;5024268;28;20048;-78
2021/04/27 00:29:30;;;;;;;8.68;4.45;;;;;;;4.46;73.30;100975.34;5049462;28;20102;-78
2021/04/27 00:31:55;;;;;;;12.15;5.40;;;;;;;4.45;73.17;100974.50;5046076;28;20072;-78
2021/04/27 00:34:21;;;;;;;6.30;4.32;;;;;;;4.29;73.58;100979.34;5047736;28;20430;-78
2021/04/27 00:36:47;;;;;;;7.45;4.40;;;;;;;4.33;73.64;100969.34;5032207;28;20064;-80
2021/04/27 00:39:12;;;;;;;12.93;4.93;;;;;;;4.17;74.25;100972.31;5029502;28;20517;-80
2021/04/27 00:41:37;;;;;;;8.75;4.72;;;;;;;4.15;74.39;100972.44;5043477;28;20045;-78
2021/04/27 00:44:04;;;;;;;8.27;5.07;;;;;;;4.03;74.43;100968.09;5023262;28;20045;-82
2021/04/27 00:46:30;;;;;;;9.75;4.97;;;;;;;4.00;74.87;100962.97;5046511;28;20037;-80
2021/04/27 00:48:55;;;;;;;9.60;5.00;;;;;;;4.01;74.60;100959.38;5028054;28;20055;-80
2021/04/27 00:51:21;;;;;;;8.82;5.32;;;;;;;4.02;74.93;100951.28;5045582;28;20436;-80
2021/04/27 00:53:46;;;;;;;8.90;4.93;;;;;;;3.95;74.85;100959.84;5038509;28;20060;-80
2021/04/27 00:56:12;;;;;;;10.15;5.22;;;;;;;3.92;75.40;100960.94;5046658;28;20073;-74
2021/04/27 00:58:37;;;;;;;9.25;5.60;;;;;;;3.77;75.25;100957.66;5025269;28;20059;-78
2021/04/27 01:01:03;;;;;;;10.07;5.22;;;;;;;3.73;75.66;100956.16;5045023;28;20052;-78
2021/04/27 01:03:28;;;;;;;9.25;5.05;;;;;;;3.79;75.44;100950.38;5047715;28;20051;-80
2021/04/27 01:05:54;;;;;;;9.02;5.53;;;;;;;3.69;75.76;100954.72;5047969;28;20070;-78
2021/04/27 01:08:34;;;;;;;7.85;5.15;;;;;;;3.63;76.10;100952.53;5048453;28;20061;-77
2021/04/27 01:11:24;;;;;;;7.00;5.13;;;;;;;3.55;76.54;100952.25;4997569;28;20087;-79
2021/04/27 01:14:14;;;;;;;9.02;5.50;;;;;;;3.57;76.06;100945.03;5044392;28;20072;-81
2021/04/27 01:16:50;;;;;;;10.45;5.20;;;;;;;3.44;77.05;100941.59;5025639;28;20044;-82
2021/04/27 01:19:24;;;;;;;8.75;6.00;;;;;;;3.45;77.21;100940.63;5046612;28;20055;-80
2021/04/27 01:21:50;;;;;;;7.82;5.70;;;;;;;3.48;76.68;100935.97;5045393;28;20069;-81
2021/04/27 01:24:39;;;;;;;9.65;5.68;;;;;;;3.50;76.50;100927.88;5044811;28;20079;-79
2021/04/27 01:27:05;;;;;;;10.67;5.90;;;;;;;3.47;76.79;100918.31;5027454;28;20052;-80
2021/04/27 01:29:33;;;;;;;8.40;5.30;;;;;;;3.44;77.19;100923.03;5044393;28;20068;-77
2021/04/27 01:32:02;;;;;;;9.98;5.82;;;;;;;3.34;77.24;100921.06;5029279;28;20136;-77
2021/04/27 01:34:35;;;;;;;9.07;5.47;;;;;;;3.35;77.10;100911.28;5054087;28;20140;-79
2021/04/27 01:37:04;;;;;;;9.32;5.68;;;;;;;3.33;77.40;100916.69;5050370;28;20072;-78
2021/04/27 01:39:30;;;;;;;8.15;5.60;;;;;;;3.37;77.43;100906.72;5048561;28;20049;-77
2021/04/27 01:41:58;;;;;;;12.45;6.18;;;;;;;3.27;77.25;100916.31;5045444;28;20144;-80
2021/04/27 01:44:25;;;;;;;9.77;6.38;;;;;;;3.29;77.14;100904.63;5047356;28;20036;-78
2021/04/27 01:46:51;;;;;;;10.35;5.63;;;;;;;3.27;77.11;100917.16;5048618;28;20132;-81
2021/04/27 01:49:17;;;;;;;10.35;6.07;;;;;;;3.13;78.04;100904.06;5029530;28;20148;-81
2021/04/27 01:51:43;;;;;;;9.40;5.93;;;;;;;3.16;78.69;100909.16;5039973;28;20037;-80
2021/04/27 01:54:09;;;;;;;10.10;6.28;;;;;;;3.19;78.05;100903.63;5047843;28;20045;-78
2021/04/27 01:56:36;;;;;;;10.43;6.68;;;;;;;3.26;77.80;100894.25;5010322;28;20132;-78
2021/04/27 01:59:04;;;;;;;10.90;6.95;;;;;;;3.20;78.25;100899.19;5027314;28;20052;-80
2021/04/27 02:01:31;;;;;;;10.73;6.95;;;;;;;3.21;78.00;100896.41;5049335;28;20037;-79
2021/04/27 02:03:57;;;;;;;11.88;6.68;;;;;;;3.18;78.09;100896.63;5044662;28;20523;-78
2021/04/27 02:06:22;;;;;;;9.77;6.57;;;;;;;3.14;78.37;100896.03;5031127;28;20072;-76
2021/04/27 02:08:56;;;;;;;10.77;6.05;;;;;;;3.07;77.94;100902.72;5028123;28;20452;-79
2021/04/27 02:11:22;;;;;;;9.60;7.10;;;;;;;3.02;78.48;100896.06;5029472;28;20049;-80
2021/04/27 02:13:48;;;;;;;7.90;6.30;;;;;;;2.88;79.41;100895.28;5029768;28;20045;-75
2021/04/27 02:16:14;;;;;;;11.75;7.68;;;;;;;2.98;78.77;100892.81;5049024;28;20033;-79
2021/04/27 02:18:57;;;;;;;11.10;6.68;;;;;;;2.90;79.21;100893.34;5029781;28;20099;-75
2021/04/27 02:21:25;;;;;;;11.43;7.25;;;;;;;2.91;79.09;100884.47;5044240;28;20041;-82
2021/04/27 02:23:51;;;;;;;10.00;6.93;;;;;;;2.81;79.42;100887.91;5022038;28;20135;-76
2021/04/27 02:26:17;;;;;;;12.55;6.97;;;;;;;2.81;79.56;100883.44;5045585;28;20041;-77
2021/04/27 02:28:44;;;;;;;12.85;6.75;;;;;;;2.80;79.86;100880.91;5046492;28;20132;-76
2021/04/27 02:31:11;;;;;;;10.88;7.15;;;;;;;2.80;79.75;100879.09;5014711;28;20071;-77
2021/04/27 02:33:40;;;;;;;9.45;6.95;;;;;;;2.75;79.67;100881.22;4998365;28;20053;-77
2021/04/27 02:36:07;;;;;;;9.75;7.43;;;;;;;2.75;79.82;100880.41;5033149;28;20049;-81
2021/04/27 02:38:33;;;;;;;10.73;7.30;;;;;;;2.65;79.99;100874.94;5035335;28;20064;-78
2021/04/27 02:40:58;;;;;;;11.00;7.88;;;;;;;2.62;80.08;100876.00;5031060;28;20528;-77
2021/04/27 02:43:25;;;;;;;10.32;7.30;;;;;;;2.61;80.48;100871.63;5035202;28;20033;-81
2021/04/27 02:45:50;;;;;;;11.15;7.88;;;;;;;2.66;79.90;100868.66;5043634;28;20053;-78
2021/04/27 02:48:19;;;;;;;10.20;7.32;;;;;;;2.63;79.97;100868.88;5031180;28;20102;-75
2021/04/27 02:50:50;;;;;;;11.45;7.50;;;;;;;2.61;80.25;100868.13;5048491;28;20493;-81
2021/04/27 02:53:16;;;;;;;12.15;8.05;;;;;;;2.55;80.73;100866.78;5029668;28;20045;-79
2021/04/27 02:55:42;;;;;;;9.90;7.43;;;;;;;2.55;80.31;100865.94;5046687;28;20046;-80
2021/04/27 02:58:08;;;;;;;11.73;7.32;;;;;;;2.49;80.66;100860.13;5049505;28;20049;-77
2021/04/27 03:00:34;;;;;;;10.68;7.20;;;;;;;2.40;81.32;100857.28;5046567;28;20060;-77
2021/04/27 03:03:00;;;;;;;12.02;8.30;;;;;;;2.50;80.76;100850.38;5032998;28;20047;-79
2021/04/27 03:05:25;;;;;;;14.85;8.02;;;;;;;2.45;80.54;100853.38;5050216;28;20041;-78
2021/04/27 03:07:51;;;;;;;13.65;8.00;;;;;;;2.47;81.04;100853.22;5051138;28;20052;-78
2021/04/27 03:10:16;;;;;;;11.15;7.95;;;;;;;2.47;80.83;100853.22;5032596;28;20447;-82
2021/04/27 03:12:42;;;;;;;10.48;7.70;;;;;;;2.32;81.15;100854.34;5043716;28;20049;-79
2021/04/27 03:15:09;;;;;;;12.63;7.97;;;;;;;2.37;80.75;100849.56;5048538;28;20063;-76
2021/04/27 03:17:35;;;;;;;13.48;7.82;;;;;;;2.36;81.00;100861.09;5049219;28;20052;-80
2021/04/27 03:20:01;;;;;;;9.93;8.45;;;;;;;2.38;81.01;100843.31;5048984;28;20048;-78
2021/04/27 03:22:27;;;;;;;10.30;8.00;;;;;;;2.31;81.42;100845.56;5044869;28;20041;-79
2021/04/27 03:24:53;;;;;;;11.80;8.38;;;;;;;2.29;81.39;100850.09;5029323;28;28872;-80
2021/04/27 03:27:18;;;;;;;10.80;7.53;;;;;;;2.20;81.40;100845.47;5044725;28;20507;-77
2021/04/27 03:29:44;;;;;;;11.70;8.25;;;;;;;2.30;80.93;100838.56;5022953;28;20509;-79
2021/04/27 03:32:10;;;;;;;9.38;8.00;;;;;;;2.28;81.07;100856.38;5044427;28;20048;-78
2021/04/27 03:34:35;;;;;;;12.77;8.75;;;;;;;2.26;80.92;100845.03;5030682;28;20045;-80
2021/04/27 03:37:01;;;;;;;14.45;8.77;;;;;;;2.23;81.37;100850.56;5045010;28;20068;-80
2021/04/27 03:39:26;;;;;;;12.27;8.35;;;;;;;2.19;81.00;100849.09;5037722;28;20049;-82
2021/04/27 03:41:52;;;;;;;11.57;8.75;;;;;;;2.20;80.74;100848.13;5045596;28;20284;-81
2021/04/27 03:44:17;;;;;;;10.38;8.55;;;;;;;2.19;80.86;100847.28;5026087;28;20477;-78
2021/04/27 03:46:43;;;;;;;11.40;8.02;;;;;;;2.23;80.39;100855.84;5013472;28;20037;-81
2021/04/27 03:49:08;;;;;;;10.20;8.07;;;;;;;2.22;80.44;100848.88;5026390;28;20048;-78
2021/04/27 03:51:33;;;;;;;12.50;7.85;;;;;;;2.20;79.61;100848.13;5025631;28;20548;-79
2021/04/27 03:53:59;;;;;;;11.88;8.07;;;;;;;2.20;79.73;100845.47;5014888;28;20079;-80
2021/04/27 03:56:24;;;;;;;10.68;7.38;;;;;;;2.18;79.57;100844.72;5048260;28;20102;-78
2021/04/27 03:58:50;;;;;;;15.07;8.32;;;;;;;2.15;79.82;100842.31;5022606;28;20071;-79
2021/04/27 04:01:15;;;;;;;12.95;8.13;;;;;;;2.17;79.43;100837.75;5027927;28;20657;-80
2021/04/27 04:03:41;;;;;;;13.45;9.35;;;;;;;2.15;79.65;100837.84;5056831;28;20040;-76
2021/04/27 04:06:06;;;;;;;13.85;7.95;;;;;;;2.12;79.15;100838.06;5022359;28;20037;-75
2021/04/27 04:08:32;;;;;;;12.95;8.02;;;;;;;2.14;78.84;100837.97;5037774;28;20056;-79
2021/04/27 04:10:58;;;;;;;9.85;8.07;;;;;;;2.17;78.97;100843.06;5054179;28;20047;-76
2021/04/27 04:13:24;;;;;;;9.35;7.53;;;;;;;2.10;79.19;100841.78;5031905;28;20068;-81
2021/04/27 04:15:49;;;;;;;10.68;7.45;;;;;;;2.05;79.03;100841.28;5010547;28;20049;-82
2021/04/27 04:18:14;;;;;;;12.25;7.45;;;;;;;2.10;79.10;100840.00;5048062;28;20086;-79
2021/04/27 04:20:40;;;;;;;10.88;7.38;;;;;;;2.12;78.12;100848.66;5024937;28;20063;-79
2021/04/27 04:23:05;;;;;;;13.18;7.63;;;;;;;2.18;78.25;100850.03;5034963;28;20401;-77
2021/04/27 04:25:31;;;;;;;10.73;8.05;;;;;;;2.19;77.82;100854.38;5022938;28;20552;-80
2021/04/27 04:27:56;;;;;;;10.70;7.07;;;;;;;2.10;78.04;100847.06;5047393;28;20029;-75
2021/04/27 04:30:24;;;;;;;11.68;7.35;;;;;;;2.26;77.63;100847.69;5044951;28;20354;-77
2021/04/27 04:32:50;;;;;;;12.18;6.88;;;;;;;2.21;77.21;100852.44;5028407;28;20130;-77
2021/04/27 04:35:17;;;;;;;9.30;7.15;;;;;;;2.27;76.98;100862.59;5045491;28;20044;-75
2021/04/27 04:37:43;;;;;;;10.07;6.63;;;;;;;2.23;77.13;100866.44;5048049;28;20033;-75
2021/04/27 04:40:11;;;;;;;10.32;6.75;;;;;;;2.17;77.04;100867.72;5046522;28;20041;-75
2021/04/27 04:42:38;;;;;;;10.25;6.82;;;;;;;2.29;76.77;100863.34;5028976;28;20048;-79
2021/04/27 04:45:05;;;;;;;10.32;5.93;;;;;;;2.26;76.20;100867.06;5047594;28;20095;-80
2021/04/27 04:47:30;;;;;;;11.70;6.88;;;;;;;2.36;76.21;100863.75;5049491;28;20048;-79
2021/04/27 04:49:55;;;;;;;9.32;6.28;;;;;;;2.39;75.80;100867.06;5031637;28;20044;-80
2021/04/27 04:52:21;;;;;;;10.27;6.57;;;;;;;2.40;75.44;100866.09;5052856;28;20063;-76
2021/04/27 04:54:46;;;;;;;10.05;5.97;;;;;;;2.43;75.59;100863.22;5031991;28;20117;-78
2021/04/27 04:57:12;;;;;;;9.73;6.40;;;;;;;2.50;74.58;100858.31;5053523;28;20495;-77
2021/04/27 04:59:37;;;;;;;10.50;6.32;;;;;;;2.53;75.39;100857.25;5031920;28;20041;-77
2021/04/27 05:02:02;;;;;;;8.93;6.05;;;;;;;2.57;74.45;100870.19;5016213;28;20048;-77
2021/04/27 05:04:28;;;;;;;12.60;5.57;;;;;;;2.61;74.99;100866.34;5028295;28;20060;-77
2021/04/27 05:06:58;;;;;;;7.03;5.20;;;;;;;2.69;73.96;100866.63;5018418;28;20052;-80
2021/04/27 05:09:23;;;;;;;7.07;5.18;;;;;;;2.77;73.90;100868.72;5021865;28;20044;-80
2021/04/27 05:11:49;;;;;;;13.48;5.80;;;;;;;2.87;73.31;100868.88;5045473;28;20043;-79
2021/04/27 05:14:14;;;;;;;7.28;4.55;;;;;;;2.87;72.43;100864.44;5045764;28;20045;-76
2021/04/27 05:16:39;;;;;;;7.28;5.05;;;;;;;2.99;71.91;100867.13;5028583;28;20171;-75
2021/04/27 05:19:05;;;;;;;8.98;4.95;;;;;;;3.07;72.25;100870.06;5027047;28;20056;-79
2021/04/27 05:21:30;;;;;;;7.65;4.70;;;;;;;3.18;71.40;100872.75;5048741;28;20689;-78
2021/04/27 05:23:56;;;;;;;7.75;4.43;;;;;;;3.24;70.75;100868.81;5019429;28;20045;-79
2021/04/27 05:26:21;;;;;;;8.18;4.88;;;;;;;3.39;71.07;100865.88;5050445;28;20508;-79
2021/04/27 05:28:47;;;;;;;8.20;4.80;;;;;;;3.51;70.00;100868.53;5036137;28;20037;-75
2021/04/27 05:31:13;;;;;;;7.55;4.47;;;;;;;3.65;69.88;100859.50;5043423;28;20053;-75
2021/04/27 05:33:39;;;;;;;7.45;4.35;;;;;;;3.65;69.03;100860.34;5027110;28;20052;-80
2021/04/27 05:36:05;;;;;;;9.40;4.55;;;;;;;3.77;69.42;100867.41;5040240;28;20041;-79
2021/04/27 05:38:30;;;;;;;5.88;3.95;;;;;;;3.90;68.92;100858.47;5026692;28;20461;-77
2021/04/27 05:40:56;;;;;;;7.43;3.97;;;;;;;4.00;68.40;100852.31;5042636;28;20045;-81
2021/04/27 05:43:21;;;;;;;7.68;3.25;;;;;;;4.06;67.66;100854.50;5041397;28;20041;-77
2021/04/27 05:45:47;;;;;;;9.15;4.13;;;;;;;4.23;67.25;100861.13;5026682;28;20072;-81
2021/04/27 05:48:12;;;;;;;6.13;3.28;;;;;;;4.41;67.42;100850.00;5043359;28;21060;-81
2021/04/27 05:50:40;;;;;;;5.13;3.20;;;;;;;4.47;65.87;100849.50;5039537;28;20094;-74
2021/04/27 05:53:05;;;;;;;5.13;3.45;;;;;;;4.62;65.55;100853.56;5048424;28;20060;-77
2021/04/27 05:55:31;;;;;;;4.95;3.08;;;;;;;4.75;64.76;100858.75;5044428;28;20397;-81
2021/04/27 05:57:57;;;;;;;4.82;3.30;;;;;;;4.88;63.43;100858.59;5045566;28;20107;-77
2021/04/27 06:00:23;;;;;;;6.63;2.90;;;;;;;5.06;63.56;100851.75;5037314;28;20068;-76
2021/04/27 06:02:49;;;;;;;7.68;3.05;;;;;;;5.17;62.36;100854.34;5038569;28;20479;-78
2021/04/27 06:05:15;;;;;;;6.15;2.92;;;;;;;5.26;61.11;100855.41;5009481;28;20076;-80
2021/04/27 06:07:41;;;;;;;4.65;2.75;;;;;;;5.39;60.27;100853.41;5016769;28;20041;-79
2021/04/27 06:10:07;;;;;;;5.70;3.22;;;;;;;5.50;61.00;100857.84;5027394;28;20040;-78
2021/04/27 06:12:33;;;;;;;7.05;3.08;;;;;;;5.58;60.82;100855.38;5044653;28;20461;-77
2021/04/27 06:14:58;;;;;;;5.00;2.92;;;;;;;5.66;60.43;100855.53;5044109;28;20112;-82
2021/04/27 06:17:24;;;;;;;4.30;2.42;;;;;;;5.78;58.85;100852.81;5024439;28;20040;-80
2021/04/27 06:19:50;;;;;;;4.10;2.60;;;;;;;5.88;59.43;100849.22;5039414;28;20397;-80
2021/04/27 06:22:15;;;;;;;5.07;2.40;;;;;;;6.02;58.82;100856.06;5021585;28;20122;-81
2021/04/27 06:24:42;;;;;;;4.43;2.22;;;;;;;6.09;58.00;100851.88;5043303;28;20042;-81
2021/04/27 06:27:07;;;;;;;3.58;2.38;;;;;;;6.19;56.69;100848.44;5041110;28;20048;-79
2021/04/27 06:29:33;;;;;;;4.57;2.00;;;;;;;6.26;55.75;100849.56;5042872;28;20048;-78
2021/04/27 06:31:58;;;;;;;6.55;2.47;;;;;;;6.37;55.84;100848.63;5043697;28;20041;-83
2021/04/27 06:34:25;;;;;;;5.60;2.60;;;;;;;6.43;55.92;100854.25;5014168;28;20048;-81
2021/04/27 06:36:50;;;;;;;6.47;2.63;;;;;;;6.50;54.89;100852.72;5021813;28;20109;-76
2021/04/27 06:39:16;;;;;;;4.65;2.33;;;;;;;6.60;55.12;100851.91;5046408;28;20041;-81
2021/04/27 06:41:41;;;;;;;5.28;2.10;;;;;;;6.68;54.36;100847.56;5044269;28;20049;-80
2021/04/27 06:44:07;;;;;;;4.72;2.70;;;;;;;6.76;55.32;100850.41;5041886;28;20083;-80
2021/04/27 06:46:32;;;;;;;6.28;2.40;;;;;;;6.89;55.02;100843.94;5043228;28;20080;-78
2021/04/27 06:48:59;;;;;;;6.80;2.63;;;;;;;6.99;54.53;100848.31;5042074;28;20075;-77
2021/04/27 06:51:24;;;;;;;4.30;2.30;;;;;;;7.08;53.08;100843.09;5041488;28;20045;-79
2021/04/27 06:53:50;;;;;;;4.90;2.35;;;;;;;7.19;53.72;100840.28;5040601;28;20452;-79
2021/04/27 06:56:16;;;;;;;5.45;2.45;;;;;;;7.30;53.02;100847.31;5025601;28;20047;-76
2021/04/27 06:58:42;;;;;;;9.48;2.45;;;;;;;7.38;52.34;100840.28;5041396;28;20114;-81
2021/04/27 07:01:08;;;;;;;4.15;2.30;;;;;;;7.49;52.83;100843.78;5025546;28;20045;-83
2021/04/27 07:03:35;;;;;;;8.20;2.35;;;;;;;7.55;52.48;100844.06;5044346;28;20432;-79
2021/04/27 07:06:00;;;;;;;3.90;2.00;;;;;;;7.65;52.55;100846.69;5025319;28;20551;-81
2021/04/27 07:08:26;;;;;;;4.20;1.95;;;;;;;7.77;51.25;100856.25;5039128;28;20045;-78
2021/04/27 07:10:53;;;;;;;3.72;2.20;;;;;;;7.84;51.34;100854.66;5037861;28;20059;-83
2021/04/27 07:13:20;;;;;;;4.75;1.92;;;;;;;7.94;51.51;100851.13;5047734;28;20334;-81
2021/04/27 07:15:46;;;;;;;5.82;2.40;;;;;;;8.11;51.77;100851.22;5045089;28;20047;-79
2021/04/27 07:18:14;;;;;;;5.25;2.30;;;;;;;8.11;50.82;100853.91;5037147;28;20037;-81
2021/04/27 07:20:40;;;;;;;5.90;2.00;;;;;;;8.13;50.17;100861.75;5020395;28;20123;-79
2021/04/27 07:23:05;;;;;;;4.53;2.53;;;;;;;8.21;48.92;100847.66;5050120;28;20049;-78
2021/04/27 07:25:31;;;;;;;4.38;2.10;;;;;;;8.25;50.02;100847.19;4992689;28;20470;-80
2021/04/27 07:27:56;;;;;;;4.47;1.95;;;;;;;8.34;48.11;100843.66;5028017;28;20036;-83
2021/04/27 07:30:22;;;;;;;4.40;2.40;;;;;;;8.44;48.20;100850.81;5007642;28;20052;-82
2021/04/27 07:32:48;;;;;;;4.78;2.22;;;;;;;8.53;47.79;100840.06;5046374;28;20338;-79
2021/04/27 07:35:14;;;;;;;3.80;2.05;;;;;;;8.56;48.85;100836.25;5041984;28;20098;-79
2021/04/27 07:37:40;;;;;;;3.78;2.17;;;;;;;8.59;48.28;100846.63;5044629;28;20049;-79
2021/04/27 07:40:07;;;;;;;2.70;1.83;;;;;;;8.62;47.74;100838.31;5024208;28;20516;-78
2021/04/27 07:42:33;;;;;;;3.80;2.08;;;;;;;8.74;48.02;100833.59;5052495;28;20045;-78
2021/04/27 07:44:59;;;;;;;4.28;2.47;;;;;;;8.81;46.38;100827.50;5052206;28;20036;-78
2021/04/27 07:47:24;;;;;;;5.13;1.90;;;;;;;8.95;45.66;100830.63;5019633;28;20051;-74
2021/04/27 07:49:50;;;;;;;5.15;2.08;;;;;;;9.19;46.45;100828.16;5028956;28;20048;-78
2021/04/27 07:52:15;;;;;;;4.15;2.08;;;;;;;9.26;45.46;100831.94;5027913;28;20051;-79
2021/04/27 07:54:41;;;;;;;8.98;2.33;;;;;;;9.25;44.19;100832.91;5048722;28;20132;-81
2021/04/27 07:57:07;;;;;;;8.35;2.20;;;;;;;9.30;45.15;100824.41;5044080;28;20052;-78
2021/04/27 07:59:32;;;;;;;5.32;1.90;;;;;;;9.32;43.81;100826.91;5049019;28;20045;-80
2021/04/27 08:01:58;;;;;;;4.30;1.83;;;;;;;9.40;43.29;100835.03;5028059;28;20037;-78
2021/04/27 08:04:23;;;;;;;5.35;2.20;;;;;;;9.42;44.21;100833.03;5028552;28;21566;-76
2021/04/27 08:06:49;;;;;;;6.95;2.08;;;;;;;9.58;43.84;100826.94;5039714;28;20485;-78
2021/04/27 08:09:14;;;;;;;4.90;2.10;;;;;;;9.69;42.92;100824.84;5047487;28;20041;-79
2021/04/27 08:11:40;;;;;;;5.40;2.00;;;;;;;9.84;43.52;100822.44;5011401;28;20107;-77
2021/04/27 08:14:07;;;;;;;3.50;2.00;;;;;;;9.87;42.78;100821.28;5028473;28;20445;-80
2021/04/27 08:16:34;;;;;;;5.65;2.40;;;;;;;9.98;43.13;100821.00;5039607;28;20110;-82
2021/04/27 08:19:00;;;;;;;3.63;2.20;;;;;;;9.98;41.69;100821.00;5027716;28;20452;-79
2021/04/27 08:21:27;;;;;;;5.03;2.17;;;;;;;10.04;40.96;100823.06;5036746;28;20120;-80
2021/04/27 08:23:53;;;;;;;7.32;2.45;;;;;;;10.03;39.93;100825.88;5040660;28;20069;-82
2021/04/27 08:26:18;;;;;;;5.68;2.83;;;;;;;10.06;41.55;100829.09;5035128;28;20076;-78
2021/04/27 08:28:44;;;;;;;5.28;2.13;;;;;;;10.09;40.48;100819.88;5050403;28;20040;-78
2021/04/27 08:31:10;;;;;;;8.95;2.67;;;;;;;10.09;39.75;100826.06;5017191;28;20136;-83
2021/04/27 08:33:36;;;;;;;4.18;2.63;;;;;;;10.12;39.71;100815.03;5040160;28;20316;-77
2021/04/27 08:36:03;;;;;;;4.90;2.17;;;;;;;10.23;40.95;100821.13;5047659;28;20048;-82
2021/04/27 08:38:28;;;;;;;4.47;2.45;;;;;;;10.30;39.95;100812.31;5039217;28;20057;-81
2021/04/27 08:40:54;;;;;;;5.05;2.53;;;;;;;10.33;38.91;100808.47;5044571;28;20072;-81
2021/04/27 08:43:20;;;;;;;3.38;2.20;;;;;;;10.47;39.23;100812.34;5048309;28;20033;-81
2021/04/27 08:45:46;;;;;;;4.65;2.58;;;;;;;10.59;39.71;100811.06;5029866;28;20033;-78
2021/04/27 08:48:13;;;;;;;5.38;2.50;;;;;;;10.66;39.25;100811.22;5024676;28;20517;-77
2021/04/27 08:50:40;;;;;;;5.97;2.60;;;;;;;10.67;39.34;100807.53;5046116;28;20037;-84
2021/04/27 08:53:06;;;;;;;7.13;2.90;;;;;;;10.74;38.62;100804.03;5030310;28;20152;-83
2021/04/27 08:55:33;;;;;;;4.22;2.60;;;;;;;10.81;38.84;100806.88;5015045;28;20099;-80
2021/04/27 08:57:59;;;;;;;7.60;2.47;;;;;;;10.86;36.60;100803.72;5011884;28;20037;-78
2021/04/27 09:00:25;;;;;;;6.13;2.40;;;;;;;10.85;36.99;100805.56;5029224;28;20520;-76
2021/04/27 09:02:59;;;;;;;6.38;2.60;;;;;;;10.92;38.71;100795.00;5037036;28;20034;-76
2021/04/27 09:05:30;;;;;;;5.28;2.72;;;;;;;10.98;37.89;100789.78;5050400;28;20127;-80
2021/04/27 09:07:56;;;;;;;4.35;2.30;;;;;;;11.14;37.93;100793.50;5044014;28;20044;-82
2021/04/27 09:10:42;;;;;;;4.88;2.28;;;;;;;11.27;39.11;100801.88;5014706;28;20037;-80
2021/04/27 09:13:13;;;;;;;5.40;2.42;;;;;;;11.32;36.71;100794.16;5048557;28;20389;-84
2021/04/27 09:15:47;;;;;;;4.70;2.25;;;;;;;11.29;36.63;100791.81;5031024;28;20067;-84
2021/04/27 09:18:23;;;;;;;4.97;2.47;;;;;;;11.47;37.04;100795.16;4991081;28;20493;-83
2021/04/27 09:20:57;;;;;;;4.82;2.30;;;;;;;11.44;37.05;100784.75;5045322;28;20118;-82
2021/04/27 09:23:22;;;;;;;6.45;2.50;;;;;;;11.50;38.91;100794.81;5046550;28;20054;-80
2021/04/27 09:26:14;;;;;;;5.97;2.50;;;;;;;11.63;38.63;100788.09;5008348;28;20041;-82
2021/04/27 09:28:50;;;;;;;5.68;2.53;;;;;;;11.72;36.36;100769.06;5047889;28;20095;-81
2021/04/27 09:31:28;;;;;;;5.55;2.45;;;;;;;11.72;37.81;100779.00;5043253;28;20057;-83
2021/04/27 09:34:14;;;;;;;5.47;2.50;;;;;;;11.74;37.75;100779.66;5044811;28;20041;-80
2021/04/27 09:36:39;;;;;;;5.65;2.45;;;;;;;11.74;35.16;100785.03;5033288;28;20047;-77
2021/04/27 09:39:05;;;;;;;7.80;2.33;;;;;;;11.72;35.11;100781.69;5027044;28;20041;-81
2021/04/27 09:41:30;;;;;;;4.82;2.30;;;;;;;11.83;36.35;100775.94;5015902;28;20037;-78
2021/04/27 09:43:56;;;;;;;5.55;2.38;;;;;;;11.72;35.04;100771.75;5025117;28;20052;-82
2021/04/27 09:46:22;;;;;;;4.75;2.67;;;;;;;11.78;36.39;100764.84;5039134;28;20052;-76
2021/04/27 09:48:54;;;;;;;5.47;2.58;;;;;;;11.92;35.28;100769.53;5025255;28;20277;-78
2021/04/27 09:51:22;;;;;;;4.88;2.40;;;;;;;11.96;35.99;100762.78;5025690;28;20570;-78
2021/04/27 09:53:52;;;;;;;5.83;2.60;;;;;;;12.03;35.64;100754.06;4992753;28;20055;-78
2021/04/27 09:56:42;;;;;;;3.90;2.33;;;;;;;12.10;37.39;100755.03;5045311;28;20049;-81
2021/04/27 09:59:13;;;;;;;4.68;2.30;;;;;;;12.19;36.27;100735.13;5044995;28;20028;-78
2021/04/27 10:01:41;;;;;;;4.53;2.35;;;;;;;12.15;36.42;100736.50;5042133;28;20045;-79
2021/04/27 10:04:08;;;;;;;5.72;2.75;;;;;;;12.29;37.66;100743.00;5043586;28;20049;-85
2021/04/27 10:06:34;;;;;;;5.70;2.72;;;;;;;12.51;36.63;100733.25;5043350;28;20048;-78
2021/04/27 10:09:01;;;;;;;5.18;2.35;;;;;;;12.44;36.04;100735.84;5041524;28;20041;-78
2021/04/27 10:11:27;;;;;;;6.10;2.40;;;;;;;12.65;37.32;100729.81;5038204;28;20136;-84
2021/04/27 10:13:54;;;;;;;5.03;2.30;;;;;;;12.69;35.36;100724.88;5037870;28;20099;-82
2021/04/27 10:16:20;;;;;;;6.47;2.30;;;;;;;12.54;35.03;100722.13;5030422;28;20037;-78
2021/04/27 10:18:46;;;;;;;8.20;2.42;;;;;;;12.77;36.45;100720.28;5030793;28;20033;-83
2021/04/27 10:21:12;;;;;;;3.05;2.10;;;;;;;12.76;35.58;100704.31;5046444;28;20044;-85
2021/04/27 10:23:46;;;;;;;3.83;2.60;;;;;;;12.92;34.95;100704.19;5046432;28;20037;-79
2021/04/27 10:26:12;;;;;;;3.38;2.05;;;;;;;13.01;38.01;100713.88;5028962;28;20041;-75
2021/04/27 10:29:23;;;;;;;3.80;2.40;;;;;;;13.07;35.43;100715.00;5044154;28;20055;-78
2021/04/27 10:32:22;;;;;;;6.88;2.30;;;;;;;12.95;33.48;100693.06;4984785;28;20057;-83
2021/04/27 10:35:08;;;;;;;;;;;;;;;13.01;34.80;100702.25;5035641;28;20055;-81
2021/04/27 10:38:04;;;;;;;7.47;2.70;;;;;;;13.09;35.37;100696.81;4996718;28;20003;-80
2021/04/27 10:40:51;;;;;;;4.35;2.33;;;;;;;13.03;33.25;100700.19;4996450;28;20045;-80
2021/04/27 10:43:25;;;;;;;4.20;2.15;;;;;;;13.03;34.29;100702.91;5028265;28;20571;-79
2021/04/27 10:45:54;;;;;;;3.92;2.22;;;;;;;13.17;34.78;100701.25;5030534;28;20051;-74
2021/04/27 10:48:34;;;;;;;4.72;2.60;;;;;;;13.25;34.55;100693.09;5029390;28;20049;-79
2021/04/27 10:51:19;;;;;;;3.42;2.05;;;;;;;13.07;34.10;100691.59;5046812;28;20052;-82
2021/04/27 10:54:07;;;;;;;4.90;2.30;;;;;;;13.21;33.77;100692.63;5051690;28;20045;-83
2021/04/27 10:56:52;;;;;;;4.38;2.20;;;;;;;13.50;33.83;100683.75;5024607;28;20045;-84
2021/04/27 10:59:28;;;;;;;2.97;2.17;;;;;;;13.56;35.52;100676.78;4989600;28;20091;-82
2021/04/27 11:02:19;;;;;;;6.82;2.22;;;;;;;13.66;33.71;100677.31;5046507;28;20049;-83
2021/04/27 11:04:46;;;;;;;3.45;2.10;;;;;;;13.60;33.14;100680.78;5024442;28;20041;-78
2021/04/27 11:07:21;;;;;;;5.47;2.40;;;;;;;13.49;33.77;100668.63;5023762;28;20045;-79
2021/04/27 11:10:03;;;;;;;5.40;2.22;;;;;;;13.51;32.97;100673.81;5045866;28;20297;-79
2021/04/27 11:12:29;;;;;;;3.55;2.15;;;;;;;13.56;33.41;100668.69;5029204;28;20048;-78
2021/04/27 11:15:01;;;;;;;6.03;2.25;;;;;;;13.35;34.53;100665.91;5040994;28;20049;-83
2021/04/27 11:18:03;;;;;;;4.93;2.45;;;;;;;13.65;34.64;100653.25;5049441;28;20041;-83
2021/04/27 11:20:51;;;;;;;5.40;2.20;;;;;;;13.79;34.25;100657.78;5005129;28;20041;-82
2021/04/27 11:23:35;;;;;;;5.07;2.10;;;;;;;13.96;34.12;100658.41;5032126;28;20056;-81
2021/04/27 11:26:03;;;;;;;5.55;2.50;;;;;;;13.98;34.84;100653.66;5040172;28;20075;-79
2021/04/27 11:28:52;;;;;;;4.65;2.30;;;;;;;14.09;34.63;100658.56;5048306;28;20110;-78
2021/04/27 11:31:18;;;;;;;3.25;2.20;;;;;;;14.10;34.03;100654.84;5045154;28;20126;-81
2021/04/27 11:33:53;;;;;;;3.47;2.25;;;;;;;13.94;31.18;100649.66;5033202;28;20982;-78